createdAt,value
2023-03-02T00:00:00.048Z,13.4
2023-03-02T00:06:20.009Z,13.4
2023-03-02T00:12:43.169Z,12.2
2023-03-02T00:19:02.972Z,12.2
2023-03-02T00:25:26.074Z,7.9
2023-03-02T00:31:45.994Z,7.9
2023-03-02T00:38:09.193Z,5
2023-03-02T00:44:29.086Z,5
2023-03-02T00:50:51.990Z,10.8
2023-03-02T00:57:12.066Z,10.8
2023-03-02T01:03:35.193Z,10.5
2023-03-02T01:09:54.919Z,10.5
2023-03-02T01:16:18.171Z,6.9
2023-03-02T01:22:37.926Z,6.9
2023-03-02T01:29:00.995Z,6.9
2023-03-02T01:35:20.984Z,6.9
2023-03-02T01:41:43.986Z,4.2
2023-03-02T01:48:03.926Z,4.2
2023-03-02T01:54:27.040Z,7
2023-03-02T02:00:47.160Z,7
2023-03-02T02:07:10.017Z,6.2
2023-03-02T02:13:30.074Z,6.2
2023-03-02T02:19:52.954Z,9.3
2023-03-02T02:26:13.126Z,9.3
2023-03-02T02:32:36.130Z,9.3
2023-03-02T02:38:55.999Z,9.3
2023-03-02T02:45:18.983Z,5.6
2023-03-02T02:51:39.012Z,5.6
2023-03-02T02:58:01.947Z,9.1
2023-03-02T03:04:22.075Z,9.1
2023-03-02T03:10:45.085Z,8.4
2023-03-02T03:17:05.106Z,8.4
2023-03-02T03:23:28.021Z,5.9
2023-03-02T03:29:48.013Z,5.9
2023-03-02T03:36:11.044Z,2.9
2023-03-02T03:42:31.036Z,2.9
2023-03-02T03:48:53.956Z,7.2
2023-03-02T03:55:14.012Z,7.2
2023-03-02T04:01:36.959Z,6.2
2023-03-02T04:17:08.841Z,4.6
2023-03-02T04:23:28.866Z,4.6
2023-03-02T04:29:51.932Z,19
2023-03-02T04:36:11.913Z,19
2023-03-02T04:42:34.991Z,19
2023-03-02T04:48:55.059Z,19
2023-03-02T04:55:18.017Z,5.7
2023-03-02T05:01:37.938Z,5.7
2023-03-02T05:08:01.137Z,9
2023-03-02T05:14:21.059Z,9
2023-03-02T05:20:43.996Z,5.3
2023-03-02T05:27:03.952Z,5.3
2023-03-02T05:33:26.963Z,2
2023-03-02T05:39:46.966Z,2
2023-03-02T05:46:09.969Z,9.4
2023-03-02T05:52:30.075Z,9.4
2023-03-02T05:58:53.005Z,5.2
2023-03-02T06:05:12.931Z,5.2
2023-03-02T06:11:36.132Z,7.1
2023-03-02T06:17:55.955Z,7.1
2023-03-02T06:24:18.910Z,2.3
2023-03-02T06:30:39.076Z,2.3
2023-03-02T06:37:02.050Z,11.2
2023-03-02T06:43:21.990Z,11.2
2023-03-02T06:49:45.041Z,9.6
2023-03-02T06:56:05.102Z,9.6
2023-03-02T07:02:27.972Z,2.6
2023-03-02T07:08:47.937Z,2.6
2023-03-02T07:15:11.099Z,6.8
2023-03-02T07:21:31.252Z,6.8
2023-03-02T07:27:53.953Z,5.5
2023-03-02T07:34:13.984Z,5.5
2023-03-02T07:40:37.015Z,4.1
2023-03-02T07:46:57.100Z,4.1
2023-03-02T07:53:19.994Z,12.1
2023-03-02T07:59:39.926Z,12.1
2023-03-02T08:06:03.120Z,9.2
2023-03-02T08:12:22.920Z,9.2
2023-03-02T08:18:46.016Z,8.7
2023-03-02T08:25:05.956Z,8.7
2023-03-02T08:31:29.070Z,6.7
2023-03-02T08:37:48.920Z,6.7
2023-03-02T08:44:11.937Z,13.9
2023-03-02T08:50:32.069Z,13.9
2023-03-02T08:56:54.944Z,21.2
2023-03-02T09:20:18.933Z,9.8
2023-03-02T09:26:38.910Z,9.8
2023-03-02T09:33:02.138Z,4.3
2023-03-02T09:39:21.943Z,4.3
2023-03-02T09:45:44.938Z,10.8
2023-03-02T09:52:05.158Z,10.8
2023-03-02T09:58:28.014Z,3.8
2023-03-02T10:04:48.004Z,3.8
2023-03-02T10:11:10.921Z,13.4
2023-03-02T10:17:31.087Z,13.4
2023-03-02T10:23:54.062Z,27.2
2023-03-02T10:30:14.032Z,27.2
2023-03-02T10:36:37.409Z,9.7
2023-03-02T10:42:57.006Z,9.7
2023-03-02T10:49:20.916Z,10.7
2023-03-02T10:55:40.093Z,10.7
2023-03-02T11:02:03.028Z,11.1
2023-03-02T11:08:23.026Z,11.1
2023-03-02T11:14:45.938Z,10.8
2023-03-02T11:21:05.908Z,10.8
2023-03-02T11:27:28.996Z,25
2023-03-02T11:33:49.128Z,25
2023-03-02T11:40:12.126Z,6.3
2023-03-02T11:46:32.071Z,6.3
2023-03-02T11:52:55.068Z,7.5
2023-03-02T11:59:15.012Z,7.5
2023-03-02T12:05:37.997Z,16.6
2023-03-02T12:11:58.061Z,16.6
2023-03-02T12:18:21.036Z,15.4
2023-03-02T12:24:41.044Z,15.4
2023-03-02T12:31:04.080Z,12.2
2023-03-02T12:37:24.023Z,12.2
2023-03-02T12:43:47.039Z,7.6
2023-03-02T12:50:06.965Z,7.6
2023-03-02T12:56:30.023Z,8.9
2023-03-02T13:02:50.110Z,8.9
2023-03-02T13:09:13.047Z,15.2
2023-03-02T13:15:33.011Z,15.2
2023-03-02T13:21:55.988Z,3.7
2023-03-02T13:28:16.446Z,3.7
2023-03-02T13:34:39.200Z,7.7
2023-03-02T13:40:59.028Z,7.7
2023-03-02T13:47:22.034Z,8.1
2023-03-02T13:53:41.916Z,8.1
2023-03-02T14:00:04.926Z,24.1
2023-03-02T14:06:25.014Z,24.1
2023-03-02T14:12:47.973Z,8.7
2023-03-02T14:35:35.514Z,15.9
2023-03-02T14:41:55.384Z,15.9
2023-03-02T14:48:17.946Z,15.9
2023-03-02T14:54:37.990Z,15.9
2023-03-02T15:01:00.944Z,4.6
2023-03-02T15:07:20.981Z,4.6
2023-03-02T15:13:45.715Z,10.5
2023-03-02T15:20:04.430Z,10.5
2023-03-02T15:26:27.008Z,2.9
2023-03-02T15:32:47.070Z,2.9
2023-03-02T15:39:09.925Z,1
2023-03-02T15:45:29.937Z,1
2023-03-02T15:51:53.023Z,1
2023-03-02T15:58:12.987Z,1
2023-03-02T16:04:36.001Z,0.9
2023-03-02T16:10:56.080Z,0.9
2023-03-02T16:17:19.016Z,2.7
2023-03-02T16:23:38.992Z,2.7
2023-03-02T16:30:01.957Z,4.5
2023-03-02T16:36:22.182Z,4.5
2023-03-02T16:42:44.925Z,5.6
2023-03-02T16:49:05.031Z,5.6
2023-03-02T16:55:27.915Z,2.9
2023-03-02T17:01:47.980Z,2.9
2023-03-02T17:08:11.006Z,2.5
2023-03-02T17:14:31.015Z,2.5
2023-03-02T17:20:54.000Z,1.4
2023-03-02T17:27:24.381Z,1.4
2023-03-02T17:33:37.051Z,2.8
2023-03-02T17:39:56.929Z,2.8
2023-03-02T17:46:20.013Z,2.2
2023-03-02T17:52:39.920Z,2.2
2023-03-02T17:59:03.065Z,6.3
2023-03-02T18:05:23.016Z,6.3
2023-03-02T18:11:45.920Z,0.8
2023-03-02T18:18:05.927Z,0.8
2023-03-02T18:24:29.019Z,6.8
2023-03-02T18:30:49.020Z,6.8
2023-03-02T18:37:12.062Z,5.3
2023-03-02T18:43:32.060Z,5.3
2023-03-02T18:49:55.047Z,5.5
2023-03-02T18:56:15.001Z,5.5
2023-03-02T19:02:37.986Z,10.5
2023-03-02T19:08:58.008Z,10.5
2023-03-02T19:15:20.888Z,3.9
2023-03-02T19:21:41.078Z,3.9
2023-03-02T19:28:04.100Z,6.6
2023-03-02T19:43:35.835Z,6.6
2023-03-02T19:49:55.876Z,6.6
2023-03-02T19:56:19.004Z,11.9
2023-03-02T20:02:39.022Z,11.9
2023-03-02T20:09:02.026Z,11.9
2023-03-02T20:15:22.111Z,11.9
2023-03-02T20:21:45.015Z,4.5
2023-03-02T20:28:04.989Z,4.5
2023-03-02T20:34:27.914Z,4.7
2023-03-02T20:40:47.962Z,4.7
2023-03-02T20:47:11.048Z,6.7
2023-03-02T20:53:30.904Z,6.7
2023-03-02T20:59:53.957Z,11.5
2023-03-02T21:06:14.081Z,11.5
2023-03-02T21:12:37.028Z,6.8
2023-03-02T21:18:57.224Z,6.8
2023-03-02T21:25:20.075Z,5.3
2023-03-02T21:31:40.266Z,5.3
2023-03-02T21:38:03.321Z,7.1
2023-03-02T21:44:23.233Z,7.1
2023-03-02T21:50:45.940Z,4.1
2023-03-02T21:57:06.010Z,4.1
2023-03-02T22:03:29.011Z,10.2
2023-03-02T22:09:49.132Z,10.2
2023-03-02T22:16:12.006Z,13.3
2023-03-02T22:22:31.966Z,13.3
2023-03-02T22:28:55.059Z,5.4
2023-03-02T22:35:15.054Z,5.4
2023-03-02T22:41:38.122Z,15.7
2023-03-02T22:47:57.895Z,15.7
2023-03-02T22:54:20.967Z,7
2023-03-02T23:00:41.030Z,7
2023-03-02T23:23:38.943Z,16.1
2023-03-02T23:29:58.897Z,16.1
2023-03-02T23:36:21.954Z,16.1
2023-03-02T23:42:42.209Z,16.1
2023-03-02T23:49:04.956Z,7.2
2023-03-02T23:55:24.903Z,7.2
